Jepson Prairie Reserve, California Weather observations

Data are for 10 minute period ending at time listed.
 Day   Time   Solar   Ave.   Ave.  Ave.  Vector  Max.   Baro.   Total    
  of    of     Rad.   Air    Rel.  Wind   Wind   Wind  Press.  Precip.   
Year   Day            Temp.  Hum.  Speed  Dir.   Gust                    
2015   (PST)  Kw/m2    F      %     mph   deg.    mph    mb.     in.     
-------------------------------------------------------------------------
 110   18:10   0.06   63.2    69   24.2   217    31.7   1005.8    0.00 
 110   18:20   0.07   62.7    68   25.4   216    32.4   1005.8    0.00 
 110   18:30   0.05   62.4    69   26.1   217    33.0   1005.8    0.00 
 110   18:40   0.03   61.7    70   26.8   219    34.2   1005.8    0.00 
 110   18:50   0.01   60.9    71   26.1   217    33.2   1005.8    0.00 
 110   19:00   0.01   60.3    73   25.7   216    31.6   1005.8    0.00 
 110   19:10   0.00   59.7    74   24.8   215    31.6   1005.8    0.00 
 110   19:20   0.00   59.1    75   26.4   215    34.8   1006.1    0.00 
 110   19:30   0.00   58.7    76   25.7   216    35.7   1006.1    0.00 
 110   19:40   0.00   58.4    77   24.5   216    32.0   1006.1    0.00 
 110   19:50   0.00   58.2    78   26.6   217    38.0   1006.1    0.00 
 110   20:00   0.00   57.8    79   26.7   215    33.0   1006.1    0.00 
 110   20:10   0.00   57.5    80   26.7   216    34.6   1006.1    0.00 
 110   20:20   0.00   57.3    80   26.6   217    34.8   1006.1    0.00 
 110   20:30   0.00   57.1    80   29.3   218    36.1   1006.1    0.00 
 110   20:40   0.00   56.8    81   27.6   217    36.7   1006.1    0.00 
 110   20:50   0.00   56.6    82   29.3   217    36.2   1006.1    0.00 
 110   21:00   0.00   56.2    82   28.5   218    35.4   1006.1    0.00 
 110   21:10   0.00   56.0    83   29.8   215    37.9   1006.1    0.00 
 110   21:20   0.00   55.7    84   26.6   210    34.4   1006.1    0.00 
 110   21:30   0.00   55.7    85   28.2   210    35.4   1006.1    0.00 
 110   21:40   0.00   55.5    85   30.2   215    39.8   1005.8    0.00 
 110   21:50   0.00   55.3    85   31.2   218    39.5   1005.8    0.00 
 110   22:00   0.00   55.2    85   31.4   216    40.1   1005.8    0.00 
 110   22:10   0.00   55.1    86   30.2   214    38.7   1005.8    0.00 
 110   22:20   0.00   54.8    87   30.4   213    40.0   1005.8    0.00 
 110   22:30   0.00   54.8    87   29.9   216    37.5   1005.8    0.00 
 110   22:40   0.00   54.8    87   30.4   218    38.2   1005.8    0.00 
 110   22:50   0.00   54.7    87   29.7   218    38.5   1006.1    0.00 
 110   23:00   0.00   54.7    87   28.8   218    35.8   1006.1    0.00 
 110   23:10   0.00   54.7    87   31.0   215    42.0   1006.1    0.00 
 110   23:20   0.00   54.6    87   31.3   216    40.1   1006.1    0.00 
 110   23:30   0.00   54.6    87   32.0   217    39.5   1006.1    0.00 
 110   23:40   0.00   54.6    87   30.8   217    38.9   1006.1    0.00 
 110   23:50   0.00   54.5    88   31.4   219    42.3   1006.1    0.00 
 111    0:00   0.00   54.3    88   28.7   216    37.6   1006.1    0.00 
 111    0:10   0.00   54.1    88   30.3   217    39.5   1006.1    0.00 
 111    0:20   0.00   54.0    87   31.4   220    38.8   1006.1    0.00 
 111    0:30   0.00   53.8    87   29.3   221    38.0   1005.8    0.00 
 111    0:40   0.00   53.8    87   28.9   220    38.5   1005.8    0.00 
 111    0:50   0.00   53.7    88   29.3   219    36.0   1005.8    0.00 
 111    1:00   0.00   53.7    87   29.8   217    37.9   1005.8    0.00 
 111    1:10   0.00   53.6    88   29.3   219    37.6   1005.8    0.00 
 111    1:20   0.00   53.7    88   30.4   221    38.1   1005.8    0.00 
 111    1:30   0.00   53.6    88   28.9   221    37.9   1005.8    0.00 
 111    1:40   0.00   53.4    88   28.5   222    37.4   1005.8    0.00 
 111    1:50   0.00   53.2    89   27.1   221    34.8   1005.8    0.00 
 111    2:00   0.00   53.2    89   27.8   219    38.1   1005.8    0.00 
 111    2:10   0.00   53.0    89   30.3   220    40.1   1005.4    0.00 
 111    2:20   0.00   52.8    89   30.6   220    38.6   1005.4    0.00 
 111    2:30   0.00   52.6    89   28.6   219    38.4   1005.4    0.00 
 111    2:40   0.00   52.6    89   30.8   220    38.7   1005.4    0.00 
 111    2:50   0.00   52.5    90   31.1   218    40.1   1005.4    0.00 
 111    3:00   0.00   52.4    90   29.5   220    40.0   1005.4    0.00 
 111    3:10   0.00   52.3    91   31.7   218    40.8   1005.4    0.00 
 111    3:20   0.00   52.4    91   30.2   217    40.3   1005.8    0.00 
 111    3:30   0.00   52.4    90   32.1   220    39.5   1005.4    0.00 
 111    3:40   0.00   52.3    90   32.4   220    41.9   1005.4    0.00 
 111    3:50   0.00   52.3    90   31.3   220    42.5   1005.4    0.00 
 111    4:00   0.00   52.4    90   31.6   219    40.3   1005.8    0.00 
 111    4:10   0.00   52.4    90   32.6   219    40.7   1005.8    0.00 
 111    4:20   0.00   52.5    90   30.1   220    38.2   1005.8    0.00 
 111    4:30   0.00   52.7    89   29.0   225    37.9   1005.8    0.00 
 111    4:40   0.00   52.7    89   29.0   225    38.5   1006.1    0.00 
 111    4:50   0.00   52.8    89   29.7   223    39.1   1006.1    0.00 
 111    5:00   0.00   52.8    89   28.8   224    36.9   1006.1    0.00 
 111    5:10   0.00   52.9    90   27.8   227    36.1   1006.4    0.00 
 111    5:20   0.00   52.9    89   27.1   228    34.6   1006.4    0.00 
 111    5:30   0.00   53.0    88   27.3   228    33.2   1006.4    0.00 
 111    5:40   0.01   53.2    89   22.7   226    32.7   1006.8    0.00 
 111    5:50   0.01   53.2    89   25.7   229    33.7   1006.8    0.00 
 111    6:00   0.02   53.3    89   23.2   224    30.5   1007.1    0.00 
 111    6:10   0.03   53.6    89   24.7   225    31.8   1006.8    0.00 
 111    6:20   0.04   53.4    89   24.1   226    31.6   1007.1    0.00 
 111    6:30   0.06   53.3    90   24.6   228    31.8   1007.1    0.00 
 111    6:40   0.07   53.4    89   25.5   224    34.0   1007.1    0.00 
 111    6:50   0.07   53.4    89   24.9   226    32.4   1007.5    0.00 
 111    7:00   0.11   53.7    88   25.6   223    34.3   1007.5    0.00 
 111    7:10   0.16   53.9    87   25.4   224    32.2   1007.5    0.00 
 111    7:20   0.19   54.3    86   25.8   226    33.0   1007.8    0.00 
 111    7:30   0.21   54.6    86   25.5   227    32.7   1007.8    0.00 
 111    7:40   0.23   54.8    85   24.9   227    31.8   1007.8    0.00 
 111    7:50   0.28   55.3    84   24.6   227    31.9   1008.1    0.00 
 111    8:00   0.36   55.5    83   25.7   230    32.4   1008.1    0.00 
 111    8:10   0.37   56.2    81   25.5   226    32.4   1008.1    0.00 
 111    8:20   0.40   56.4    81   26.2   228    32.2   1008.1    0.00 
 111    8:30   0.47   57.3    79   24.7   223    32.2   1008.5    0.00 
 111    8:40   0.46   57.6    78   24.4   227    30.7   1008.5    0.00 
 111    8:50   0.56   58.3    76   22.9   225    29.9   1008.5    0.00 
 111    9:00   0.52   58.3    74   26.3   216    33.2   1008.5    0.00 
 111    9:10   0.64   58.9    73   26.5   218    33.4   1008.8    0.00 
 111    9:20   0.68   59.6    71   26.2   222    34.8   1008.8    0.00 
 111    9:30   0.66   59.8    71   26.3   224    32.5   1008.8    0.00 
 111    9:40   0.70   60.2    70   26.7   229    35.7   1008.8    0.00 
 111    9:50   0.77   60.8    69   26.2   221    33.6   1008.8    0.00 
 111   10:00   0.74   61.2    69   25.0   223    34.1   1008.8    0.00 
 111   10:10   0.57   60.3    71   25.4   218    31.9   1009.1    0.00 
 111   10:20   0.82   61.2    69   24.9   217    31.2   1009.1    0.00 
 111   10:30   0.78   61.8    68   24.8   218    32.1   1009.1    0.00 
 111   10:40   0.81   62.0    68   26.2   218    33.0   1009.1    0.00 
 111   10:50   0.84   61.8    67   27.6   219    34.3   1008.8    0.00 
 111   11:00   0.87   62.2    67   27.7   217    34.6   1008.8    0.00 
 111   11:10   0.88   62.6    67   26.6   216    33.7   1008.8    0.00 
 111   11:20   0.88   62.7    66   27.0   218    34.8   1008.8    0.00 
 111   11:30   0.85   62.9    66   26.6   220    34.8   1008.8    0.00 
 111   11:40   0.86   62.5    67   27.6   218    36.0   1008.8    0.00 
 111   11:50   0.87   62.6    66   26.6   217    33.9   1008.8    0.00 
 111   12:00   0.86   63.5    64   25.0   220    32.4   1008.8    0.00 
 111   12:10   0.87   63.1    65   26.4   220    33.7   1008.5    0.00 
 111   12:20   0.86   63.0    65   27.2   218    34.3   1008.5    0.00 
 111   12:30   0.86   63.4    65   25.8   220    33.4   1008.5    0.00 
 111   12:40   0.85   63.2    65   25.5   216    32.4   1008.1    0.00 
 111   12:50   0.86   63.2    65   25.8   219    34.8   1008.1    0.00 
 111   13:00   0.86   63.9    64   26.3   218    34.6   1008.1    0.00 
 111   13:10   0.84   62.8    65   27.3   218    34.4   1008.1    0.00 
 111   13:20   0.82   62.7    64   28.4   218    36.1   1008.1    0.00 
 111   13:30   0.82   63.5    63   25.7   220    32.8   1007.8    0.00 
 111   13:40   0.79   63.2    64   26.4   226    35.2   1007.8    0.00 
 111   13:50   0.77   63.2    63   26.1   221    32.9   1007.8    0.00 
 111   14:00   0.76   63.1    63   26.3   216    33.0   1007.8    0.00 
 111   14:10   0.74   63.1    63   26.4   218    33.0   1007.8    0.00 
 111   14:20   0.64   62.5    64   27.1   217    37.3   1008.1    0.00 
 111   14:30   0.65   61.9    65   27.2   214    34.1   1007.8    0.00 
 111   14:40   0.65   62.1    65   26.4   215    33.3   1008.1    0.00 
 111   14:50   0.67   62.2    65   25.5   217    31.9   1007.8    0.00 
 111   15:00   0.65   62.4    65   25.4   213    30.7   1007.8    0.00 
 111   15:10   0.63   62.9    64   25.1   211    34.6   1007.8    0.00 
 111   15:20   0.61   63.0    64   26.1   208    35.8   1007.5    0.00 
 111   15:30   0.57   62.5    64   26.7   212    33.8   1007.5    0.00 
 111   15:40   0.55   62.6    64   25.1   216    31.4   1007.5    0.00 
 111   15:50   0.53   62.7    63   25.3   216    31.6   1007.5    0.00 
 111   16:00   0.52   62.7    64   23.6   216    30.5   1007.5    0.00 
 111   16:10   0.52   62.7    65   24.6   218    30.8   1007.5    0.00 
 111   16:20   0.49   62.1    66   24.0   214    31.4   1007.5    0.00 
 111   16:30   0.44   61.6    66   26.0   215    32.4   1007.5    0.00 
 111   16:40   0.46   61.3    67   24.5   215    31.6   1007.5    0.00 
 111   16:50   0.45   61.5    67   24.5   218    32.6   1007.5    0.00 
 111   17:00   0.38   60.5    69   23.7   218    30.1   1007.5    0.00 
 111   17:10   0.37   60.4    68   22.0   222    28.4   1007.5    0.00 
 111   17:20   0.33   60.2    69   22.1   216    27.8   1007.5    0.00 
 111   17:30   0.29   60.2    70   22.3   217    27.8   1007.1    0.00 
 111   17:40   0.25   60.1    71   21.8   211    28.8   1007.1    0.00 
 111   17:50   0.21   59.6    71   21.2   216    28.2   1007.1    0.00 
 111   18:00   0.17   58.8    74   22.1   212    27.0   1006.8    0.00 

Return to Jepson Prairie Reserve graphs page.


Western Regional Climate Center,wrcc@dri.edu